sensor_id;sensor_type;location;lat;lon;timestamp;pressure;altitude;pressure_sealevel;temperature;humidity
70338;BME280;57757;53.198;19.646;2024-03-23T00:56:00;99237.86;;;8.41;79.24
70338;BME280;57757;53.198;19.646;2024-03-23T00:58:28;99239.24;;;8.41;79.33
70338;BME280;57757;53.198;19.646;2024-03-23T01:00:55;99238.18;;;8.42;79.43
70338;BME280;57757;53.198;19.646;2024-03-23T01:03:22;99240.78;;;8.42;79.40
70338;BME280;57757;53.198;19.646;2024-03-23T01:05:49;99231.45;;;8.41;79.35
70338;BME280;57757;53.198;19.646;2024-03-23T01:08:16;99228.52;;;8.40;79.36
70338;BME280;57757;53.198;19.646;2024-03-23T01:10:56;99233.02;;;8.40;79.42
70338;BME280;57757;53.198;19.646;2024-03-23T01:13:24;99231.96;;;8.41;79.48
70338;BME280;57757;53.198;19.646;2024-03-23T01:15:52;99231.45;;;8.41;79.49
70338;BME280;57757;53.198;19.646;2024-03-23T01:18:20;99232.36;;;8.39;79.42
70338;BME280;57757;53.198;19.646;2024-03-23T01:20:49;99231.91;;;8.37;79.41
70338;BME280;57757;53.198;19.646;2024-03-23T01:23:16;99229.15;;;8.37;79.50
70338;BME280;57757;53.198;19.646;2024-03-23T01:25:43;99229.16;;;8.36;79.43
70338;BME280;57757;53.198;19.646;2024-03-23T01:28:10;99233.98;;;8.37;79.46
70338;BME280;57757;53.198;19.646;2024-03-23T01:30:37;99233.62;;;8.38;79.47
70338;BME280;57757;53.198;19.646;2024-03-23T01:33:05;99231.38;;;8.38;79.44
70338;BME280;57757;53.198;19.646;2024-03-23T01:35:32;99228.77;;;8.38;79.43
70338;BME280;57757;53.198;19.646;2024-03-23T01:37:59;99227.55;;;8.39;79.44
70338;BME280;57757;53.198;19.646;2024-03-23T01:40:26;99226.85;;;8.39;79.49
70338;BME280;57757;53.198;19.646;2024-03-23T01:45:31;99220.84;;;8.43;79.61
70338;BME280;57757;53.198;19.646;2024-03-23T01:47:59;99214.61;;;8.43;79.48
70338;BME280;57757;53.198;19.646;2024-03-23T01:50:27;99215.84;;;8.42;79.40
70338;BME280;57757;53.198;19.646;2024-03-23T01:52:54;99218.48;;;8.41;79.44
70338;BME280;57757;53.198;19.646;2024-03-23T01:55:22;99211.59;;;8.39;79.48
70338;BME280;57757;53.198;19.646;2024-03-23T01:57:50;99207.45;;;8.38;79.50
70338;BME280;57757;53.198;19.646;2024-03-23T02:00:18;99206.64;;;8.37;79.33
70338;BME280;57757;53.198;19.646;2024-03-23T02:02:45;99200.98;;;8.35;79.44
70338;BME280;57757;53.198;19.646;2024-03-23T02:05:13;99198.06;;;8.34;79.42
70338;BME280;57757;53.198;19.646;2024-03-23T02:07:41;99195.84;;;8.32;79.38
70338;BME280;57757;53.198;19.646;2024-03-23T02:10:10;99195.55;;;8.31;79.39
70338;BME280;57757;53.198;19.646;2024-03-23T02:12:40;99205.98;;;8.29;79.32
70338;BME280;57757;53.198;19.646;2024-03-23T02:15:07;99211.55;;;8.28;79.39
70338;BME280;57757;53.198;19.646;2024-03-23T02:17:36;99208.29;;;8.27;79.38
70338;BME280;57757;53.198;19.646;2024-03-23T02:20:03;99213.88;;;8.25;79.29
70338;BME280;57757;53.198;19.646;2024-03-23T02:22:37;99209.05;;;8.24;79.39
70338;BME280;57757;53.198;19.646;2024-03-23T02:25:05;99210.74;;;8.20;79.12
70338;BME280;57757;53.198;19.646;2024-03-23T02:27:33;99208.59;;;8.16;79.34
70338;BME280;57757;53.198;19.646;2024-03-23T02:30:03;99205.17;;;8.14;79.14
70338;BME280;57757;53.198;19.646;2024-03-23T02:32:30;99211.98;;;8.13;79.30
70338;BME280;57757;53.198;19.646;2024-03-23T02:34:57;99217.18;;;8.12;79.36
70338;BME280;57757;53.198;19.646;2024-03-23T02:37:25;99219.47;;;8.12;79.36
70338;BME280;57757;53.198;19.646;2024-03-23T02:39:52;99221.38;;;8.11;79.46
70338;BME280;57757;53.198;19.646;2024-03-23T02:42:19;99216.69;;;8.12;79.55
70338;BME280;57757;53.198;19.646;2024-03-23T02:44:47;99215.27;;;8.13;79.52
70338;BME280;57757;53.198;19.646;2024-03-23T02:47:14;99217.20;;;8.12;79.47
70338;BME280;57757;53.198;19.646;2024-03-23T02:49:41;99216.01;;;8.11;79.48
70338;BME280;57757;53.198;19.646;2024-03-23T02:52:08;99213.33;;;8.14;79.52
70338;BME280;57757;53.198;19.646;2024-03-23T02:54:36;99214.02;;;8.14;79.64
70338;BME280;57757;53.198;19.646;2024-03-23T02:57:03;99212.09;;;8.15;79.63
70338;BME280;57757;53.198;19.646;2024-03-23T02:59:30;99209.48;;;8.16;79.68
70338;BME280;57757;53.198;19.646;2024-03-23T03:01:57;99201.98;;;8.17;79.77
70338;BME280;57757;53.198;19.646;2024-03-23T03:04:27;99204.11;;;8.15;79.57
70338;BME280;57757;53.198;19.646;2024-03-23T03:06:54;99198.45;;;8.13;79.55
70338;BME280;57757;53.198;19.646;2024-03-23T03:09:21;99190.83;;;8.13;79.58
70338;BME280;57757;53.198;19.646;2024-03-23T03:11:48;99191.74;;;8.12;79.55
70338;BME280;57757;53.198;19.646;2024-03-23T03:14:16;99189.96;;;8.08;79.49
70338;BME280;57757;53.198;19.646;2024-03-23T03:16:43;99189.86;;;8.05;79.59
70338;BME280;57757;53.198;19.646;2024-03-23T03:19:10;99188.20;;;8.03;79.50
70338;BME280;57757;53.198;19.646;2024-03-23T03:21:38;99188.00;;;7.98;79.40
70338;BME280;57757;53.198;19.646;2024-03-23T03:24:06;99187.27;;;7.93;79.31
70338;BME280;57757;53.198;19.646;2024-03-23T03:26:33;99183.89;;;7.90;79.51
70338;BME280;57757;53.198;19.646;2024-03-23T03:29:01;99183.27;;;7.89;79.65
70338;BME280;57757;53.198;19.646;2024-03-23T03:31:29;99178.88;;;7.84;79.41
70338;BME280;57757;53.198;19.646;2024-03-23T03:33:56;99174.70;;;7.79;79.39
70338;BME280;57757;53.198;19.646;2024-03-23T03:36:23;99166.31;;;7.75;79.51
70338;BME280;57757;53.198;19.646;2024-03-23T03:38:51;99160.98;;;7.74;79.66
70338;BME280;57757;53.198;19.646;2024-03-23T03:41:18;99162.23;;;7.73;79.63
70338;BME280;57757;53.198;19.646;2024-03-23T03:43:46;99162.45;;;7.71;79.65
70338;BME280;57757;53.198;19.646;2024-03-23T03:46:13;99160.10;;;7.69;79.67
70338;BME280;57757;53.198;19.646;2024-03-23T03:48:40;99155.96;;;7.68;79.65
70338;BME280;57757;53.198;19.646;2024-03-23T03:51:07;99155.80;;;7.68;79.67
70338;BME280;57757;53.198;19.646;2024-03-23T03:53:35;99162.88;;;7.68;79.72
70338;BME280;57757;53.198;19.646;2024-03-23T03:56:02;99167.19;;;7.69;79.74
70338;BME280;57757;53.198;19.646;2024-03-23T03:58:29;99165.67;;;7.67;79.75
70338;BME280;57757;53.198;19.646;2024-03-23T04:00:56;99164.19;;;7.65;79.67
70338;BME280;57757;53.198;19.646;2024-03-23T04:03:24;99162.02;;;7.62;79.64
70338;BME280;57757;53.198;19.646;2024-03-23T04:05:54;99155.67;;;7.60;79.73
70338;BME280;57757;53.198;19.646;2024-03-23T04:08:22;99151.91;;;7.59;79.67
70338;BME280;57757;53.198;19.646;2024-03-23T04:10:49;99143.96;;;7.58;79.76
70338;BME280;57757;53.198;19.646;2024-03-23T04:13:16;99142.98;;;7.56;79.79
70338;BME280;57757;53.198;19.646;2024-03-23T04:15:43;99136.39;;;7.57;79.78
70338;BME280;57757;53.198;19.646;2024-03-23T04:18:10;99137.19;;;7.58;79.88
70338;BME280;57757;53.198;19.646;2024-03-23T04:20:38;99133.33;;;7.61;80.08
70338;BME280;57757;53.198;19.646;2024-03-23T04:23:05;99124.27;;;7.63;80.06
70338;BME280;57757;53.198;19.646;2024-03-23T04:25:32;99116.14;;;7.63;79.95
70338;BME280;57757;53.198;19.646;2024-03-23T04:27:59;99116.83;;;7.63;80.06
70338;BME280;57757;53.198;19.646;2024-03-23T04:30:26;99114.59;;;7.62;79.98
70338;BME280;57757;53.198;19.646;2024-03-23T04:32:56;99116.84;;;7.63;80.03
70338;BME280;57757;53.198;19.646;2024-03-23T04:35:25;99110.41;;;7.63;80.00
70338;BME280;57757;53.198;19.646;2024-03-23T04:37:53;99108.86;;;7.63;80.03
70338;BME280;57757;53.198;19.646;2024-03-23T04:40:21;99109.71;;;7.64;80.21
70338;BME280;57757;53.198;19.646;2024-03-23T04:42:48;99110.41;;;7.63;80.16
70338;BME280;57757;53.198;19.646;2024-03-23T04:45:15;99114.04;;;7.64;80.02
70338;BME280;57757;53.198;19.646;2024-03-23T04:47:42;99108.88;;;7.63;80.08
70338;BME280;57757;53.198;19.646;2024-03-23T04:50:10;99104.57;;;7.62;80.05
70338;BME280;57757;53.198;19.646;2024-03-23T04:52:40;99100.02;;;7.63;80.13
70338;BME280;57757;53.198;19.646;2024-03-23T04:55:07;99095.52;;;7.64;80.20
70338;BME280;57757;53.198;19.646;2024-03-23T04:57:34;99094.83;;;7.64;80.13
70338;BME280;57757;53.198;19.646;2024-03-23T05:00:02;99095.37;;;7.63;80.05
70338;BME280;57757;53.198;19.646;2024-03-23T05:02:31;99098.80;;;7.64;80.15
70338;BME280;57757;53.198;19.646;2024-03-23T05:04:58;99097.94;;;7.64;80.10
70338;BME280;57757;53.198;19.646;2024-03-23T05:07:26;99095.88;;;7.63;80.06
70338;BME280;57757;53.198;19.646;2024-03-23T05:09:53;99095.25;;;7.62;80.09
70338;BME280;57757;53.198;19.646;2024-03-23T05:12:20;99092.83;;;7.62;80.16
70338;BME280;57757;53.198;19.646;2024-03-23T05:14:47;99093.86;;;7.62;80.17
70338;BME280;57757;53.198;19.646;2024-03-23T05:17:17;99095.80;;;7.61;80.04
70338;BME280;57757;53.198;19.646;2024-03-23T05:19:44;99100.03;;;7.58;79.97
70338;BME280;57757;53.198;19.646;2024-03-23T05:22:11;99107.04;;;7.55;79.88
70338;BME280;57757;53.198;19.646;2024-03-23T05:24:38;99108.21;;;7.50;79.88
70338;BME280;57757;53.198;19.646;2024-03-23T05:27:05;99110.17;;;7.48;79.86
70338;BME280;57757;53.198;19.646;2024-03-23T05:29:33;99098.19;;;7.44;79.75
70338;BME280;57757;53.198;19.646;2024-03-23T05:32:00;99101.53;;;7.42;80.12
70338;BME280;57757;53.198;19.646;2024-03-23T05:34:28;99095.50;;;7.40;80.04
70338;BME280;57757;53.198;19.646;2024-03-23T05:36:56;99091.02;;;7.40;80.10
70338;BME280;57757;53.198;19.646;2024-03-23T05:39:23;99090.46;;;7.41;80.12
70338;BME280;57757;53.198;19.646;2024-03-23T05:41:51;99089.92;;;7.42;80.30
70338;BME280;57757;53.198;19.646;2024-03-23T05:44:18;99082.14;;;7.43;80.34
70338;BME280;57757;53.198;19.646;2024-03-23T05:46:45;99092.50;;;7.43;80.29
70338;BME280;57757;53.198;19.646;2024-03-23T05:49:16;99095.65;;;7.41;80.14
70338;BME280;57757;53.198;19.646;2024-03-23T05:51:44;99087.36;;;7.41;80.23
70338;BME280;57757;53.198;19.646;2024-03-23T05:54:11;99090.96;;;7.42;80.27
70338;BME280;57757;53.198;19.646;2024-03-23T05:56:38;99092.80;;;7.44;80.34
70338;BME280;57757;53.198;19.646;2024-03-23T05:59:06;99094.53;;;7.44;80.30
70338;BME280;57757;53.198;19.646;2024-03-23T06:01:33;99101.17;;;7.42;80.16
70338;BME280;57757;53.198;19.646;2024-03-23T06:04:01;99105.20;;;7.40;80.14
70338;BME280;57757;53.198;19.646;2024-03-23T06:06:29;99100.39;;;7.39;80.20
70338;BME280;57757;53.198;19.646;2024-03-23T06:08:57;99086.58;;;7.38;80.18
70338;BME280;57757;53.198;19.646;2024-03-23T06:11:24;99085.46;;;7.41;80.42
70338;BME280;57757;53.198;19.646;2024-03-23T06:13:53;99082.90;;;7.46;80.57
70338;BME280;57757;53.198;19.646;2024-03-23T06:16:20;99072.77;;;7.49;80.49
70338;BME280;57757;53.198;19.646;2024-03-23T06:18:51;99072.52;;;7.52;80.44
70338;BME280;57757;53.198;19.646;2024-03-23T06:21:21;99068.97;;;7.55;80.47
70338;BME280;57757;53.198;19.646;2024-03-23T06:23:54;99063.38;;;7.56;80.43
70338;BME280;57757;53.198;19.646;2024-03-23T06:26:21;99054.02;;;7.57;80.29
70338;BME280;57757;53.198;19.646;2024-03-23T06:28:48;99056.23;;;7.59;80.39
70338;BME280;57757;53.198;19.646;2024-03-23T06:31:16;99070.19;;;7.61;80.46
70338;BME280;57757;53.198;19.646;2024-03-23T06:33:43;99079.36;;;7.60;80.20
70338;BME280;57757;53.198;19.646;2024-03-23T06:36:10;99078.33;;;7.60;80.36
70338;BME280;57757;53.198;19.646;2024-03-23T06:38:39;99067.70;;;7.62;80.39
70338;BME280;57757;53.198;19.646;2024-03-23T06:41:09;99054.61;;;7.67;80.47
70338;BME280;57757;53.198;19.646;2024-03-23T06:43:36;99035.54;;;7.73;80.77
70338;BME280;57757;53.198;19.646;2024-03-23T06:46:04;99035.59;;;7.83;81.00
70338;BME280;57757;53.198;19.646;2024-03-23T06:48:31;99028.03;;;7.93;81.00
70338;BME280;57757;53.198;19.646;2024-03-23T06:50:59;99021.70;;;8.01;80.94
70338;BME280;57757;53.198;19.646;2024-03-23T06:53:26;99030.66;;;8.08;80.92
70338;BME280;57757;53.198;19.646;2024-03-23T06:55:53;99027.59;;;8.12;80.78
70338;BME280;57757;53.198;19.646;2024-03-23T06:58:23;99026.44;;;8.15;80.74
70338;BME280;57757;53.198;19.646;2024-03-23T07:00:50;99021.94;;;8.15;80.46
70338;BME280;57757;53.198;19.646;2024-03-23T07:03:18;99013.55;;;8.17;80.66
70338;BME280;57757;53.198;19.646;2024-03-23T07:05:45;99014.83;;;8.21;80.67
70338;BME280;57757;53.198;19.646;2024-03-23T07:08:13;99018.86;;;8.25;80.79
70338;BME280;57757;53.198;19.646;2024-03-23T07:10:45;99027.14;;;8.26;80.63
70338;BME280;57757;53.198;19.646;2024-03-23T07:13:13;99023.67;;;8.26;80.26
70338;BME280;57757;53.198;19.646;2024-03-23T07:15:40;99024.90;;;8.26;80.12
70338;BME280;57757;53.198;19.646;2024-03-23T07:18:08;99028.52;;;8.26;80.16
70338;BME280;57757;53.198;19.646;2024-03-23T07:20:35;99022.23;;;8.28;80.13
70338;BME280;57757;53.198;19.646;2024-03-23T07:23:03;99024.63;;;8.30;80.24
70338;BME280;57757;53.198;19.646;2024-03-23T07:25:31;99022.68;;;8.31;80.09
70338;BME280;57757;53.198;19.646;2024-03-23T07:27:58;99007.19;;;8.33;80.18
70338;BME280;57757;53.198;19.646;2024-03-23T07:30:30;98994.83;;;8.41;80.54
70338;BME280;57757;53.198;19.646;2024-03-23T07:32:58;98994.04;;;8.48;80.72
70338;BME280;57757;53.198;19.646;2024-03-23T07:35:25;98994.10;;;8.57;80.54
70338;BME280;57757;53.198;19.646;2024-03-23T07:37:52;98989.16;;;8.64;80.66
70338;BME280;57757;53.198;19.646;2024-03-23T07:40:20;98988.98;;;8.74;80.71
70338;BME280;57757;53.198;19.646;2024-03-23T07:42:47;98993.39;;;8.82;80.59
70338;BME280;57757;53.198;19.646;2024-03-23T07:45:15;98988.20;;;8.87;80.35
70338;BME280;57757;53.198;19.646;2024-03-23T07:47:42;98985.11;;;8.90;80.27
70338;BME280;57757;53.198;19.646;2024-03-23T07:50:09;98981.58;;;8.92;79.91
70338;BME280;57757;53.198;19.646;2024-03-23T07:52:37;98972.16;;;8.93;79.74
70338;BME280;57757;53.198;19.646;2024-03-23T07:55:04;98966.99;;;8.97;79.79
70338;BME280;57757;53.198;19.646;2024-03-23T07:57:32;98965.16;;;9.00;79.94
70338;BME280;57757;53.198;19.646;2024-03-23T07:59:59;98967.61;;;9.04;80.11
70338;BME280;57757;53.198;19.646;2024-03-23T08:02:26;98962.77;;;9.08;80.16
70338;BME280;57757;53.198;19.646;2024-03-23T08:04:53;98961.89;;;9.14;80.13
70338;BME280;57757;53.198;19.646;2024-03-23T08:07:21;98962.22;;;9.19;80.12
70338;BME280;57757;53.198;19.646;2024-03-23T08:09:48;98965.77;;;9.22;79.96
70338;BME280;57757;53.198;19.646;2024-03-23T08:12:15;98971.01;;;9.21;79.73
70338;BME280;57757;53.198;19.646;2024-03-23T08:14:43;98972.55;;;9.16;79.71
70338;BME280;57757;53.198;19.646;2024-03-23T08:17:10;98971.88;;;9.16;79.87
70338;BME280;57757;53.198;19.646;2024-03-23T08:19:37;98975.23;;;9.14;79.81
70338;BME280;57757;53.198;19.646;2024-03-23T08:22:04;98971.54;;;9.11;79.57
70338;BME280;57757;53.198;19.646;2024-03-23T08:24:31;98965.17;;;9.09;79.61
70338;BME280;57757;53.198;19.646;2024-03-23T08:26:59;98957.58;;;9.08;79.63
70338;BME280;57757;53.198;19.646;2024-03-23T08:29:26;98954.30;;;9.08;79.57
70338;BME280;57757;53.198;19.646;2024-03-23T08:31:53;98951.72;;;9.07;79.59
70338;BME280;57757;53.198;19.646;2024-03-23T08:34:21;98939.92;;;9.07;79.56
70338;BME280;57757;53.198;19.646;2024-03-23T08:36:48;98930.13;;;9.09;79.65
70338;BME280;57757;53.198;19.646;2024-03-23T08:39:15;98923.50;;;9.11;79.62
70338;BME280;57757;53.198;19.646;2024-03-23T08:41:47;98923.52;;;9.10;79.49
70338;BME280;57757;53.198;19.646;2024-03-23T08:44:15;98918.50;;;9.09;79.55
70338;BME280;57757;53.198;19.646;2024-03-23T08:46:42;98916.27;;;9.09;79.53
70338;BME280;57757;53.198;19.646;2024-03-23T08:49:10;98902.55;;;9.09;79.62
70338;BME280;57757;53.198;19.646;2024-03-23T08:51:38;98900.27;;;9.10;79.53
70338;BME280;57757;53.198;19.646;2024-03-23T08:54:05;98898.95;;;9.08;79.56
70338;BME280;57757;53.198;19.646;2024-03-23T08:56:33;98896.98;;;9.05;79.53
70338;BME280;57757;53.198;19.646;2024-03-23T08:59:00;98896.74;;;9.03;79.39
70338;BME280;57757;53.198;19.646;2024-03-23T09:01:28;98901.35;;;9.00;79.29
70338;BME280;57757;53.198;19.646;2024-03-23T09:03:55;98902.19;;;8.91;78.78
70338;BME280;57757;53.198;19.646;2024-03-23T09:06:22;98904.38;;;8.80;78.49
70338;BME280;57757;53.198;19.646;2024-03-23T09:08:50;98901.87;;;8.72;78.81
70338;BME280;57757;53.198;19.646;2024-03-23T09:11:17;98896.39;;;8.71;79.03
70338;BME280;57757;53.198;19.646;2024-03-23T09:13:44;98893.69;;;8.69;78.95
70338;BME280;57757;53.198;19.646;2024-03-23T09:16:11;98888.89;;;8.67;78.85
70338;BME280;57757;53.198;19.646;2024-03-23T09:18:39;98880.13;;;8.65;78.78
70338;BME280;57757;53.198;19.646;2024-03-23T09:21:12;98875.61;;;8.65;78.97
70338;BME280;57757;53.198;19.646;2024-03-23T09:23:44;98872.45;;;8.66;78.87
70338;BME280;57757;53.198;19.646;2024-03-23T09:26:12;98864.35;;;8.65;78.84
70338;BME280;57757;53.198;19.646;2024-03-23T09:28:39;98861.92;;;8.66;78.90
70338;BME280;57757;53.198;19.646;2024-03-23T09:31:08;98858.45;;;8.66;78.86
70338;BME280;57757;53.198;19.646;2024-03-23T09:33:36;98860.45;;;8.68;79.02
70338;BME280;57757;53.198;19.646;2024-03-23T09:36:06;98862.65;;;8.69;78.98
70338;BME280;57757;53.198;19.646;2024-03-23T09:38:34;98859.48;;;8.70;78.98
70338;BME280;57757;53.198;19.646;2024-03-23T09:41:07;98863.76;;;8.71;78.85
70338;BME280;57757;53.198;19.646;2024-03-23T09:43:35;98857.69;;;8.72;78.75
70338;BME280;57757;53.198;19.646;2024-03-23T09:46:02;98850.91;;;8.72;78.89
70338;BME280;57757;53.198;19.646;2024-03-23T09:48:30;98851.09;;;8.72;78.81
70338;BME280;57757;53.198;19.646;2024-03-23T09:50:58;98846.92;;;8.72;78.84
70338;BME280;57757;53.198;19.646;2024-03-23T09:53:26;98819.67;;;8.73;78.62
70338;BME280;57757;53.198;19.646;2024-03-23T09:55:53;98810.35;;;8.77;78.85
70338;BME280;57757;53.198;19.646;2024-03-23T09:58:23;98815.63;;;8.80;78.94
70338;BME280;57757;53.198;19.646;2024-03-23T10:00:50;98817.60;;;8.82;79.06
70338;BME280;57757;53.198;19.646;2024-03-23T10:03:17;98818.17;;;8.85;78.85
70338;BME280;57757;53.198;19.646;2024-03-23T10:05:45;98820.02;;;8.87;78.77
70338;BME280;57757;53.198;19.646;2024-03-23T10:10:42;98820.58;;;8.90;78.79
70338;BME280;57757;53.198;19.646;2024-03-23T10:13:10;98814.13;;;8.91;78.72
70338;BME280;57757;53.198;19.646;2024-03-23T10:15:40;98808.61;;;8.91;78.54
70338;BME280;57757;53.198;19.646;2024-03-23T10:18:25;98800.63;;;8.90;78.63
70338;BME280;57757;53.198;19.646;2024-03-23T10:21:09;98797.31;;;8.91;78.77
70338;BME280;57757;53.198;19.646;2024-03-23T10:23:39;98791.52;;;8.93;78.84
70338;BME280;57757;53.198;19.646;2024-03-23T10:26:22;98797.67;;;8.95;78.95
70338;BME280;57757;53.198;19.646;2024-03-23T10:31:21;98783.68;;;9.03;79.02
70338;BME280;57757;53.198;19.646;2024-03-23T10:33:48;98784.89;;;9.12;79.25
70338;BME280;57757;53.198;19.646;2024-03-23T10:36:17;98780.01;;;9.21;79.13
70338;BME280;57757;53.198;19.646;2024-03-23T10:38:50;98778.66;;;9.29;79.15
70338;BME280;57757;53.198;19.646;2024-03-23T10:41:19;98775.02;;;9.33;78.92
70338;BME280;57757;53.198;19.646;2024-03-23T10:43:48;98775.06;;;9.36;78.78
70338;BME280;57757;53.198;19.646;2024-03-23T10:46:16;98779.50;;;9.38;78.70
70338;BME280;57757;53.198;19.646;2024-03-23T10:48:44;98786.80;;;9.38;78.57
70338;BME280;57757;53.198;19.646;2024-03-23T10:51:12;98783.83;;;9.38;78.60
70338;BME280;57757;53.198;19.646;2024-03-23T10:53:41;98778.46;;;9.38;78.44
70338;BME280;57757;53.198;19.646;2024-03-23T10:56:11;98767.02;;;9.38;78.37
70338;BME280;57757;53.198;19.646;2024-03-23T10:58:46;98760.86;;;9.40;78.52
70338;BME280;57757;53.198;19.646;2024-03-23T11:01:14;98764.40;;;9.42;78.52
70338;BME280;57757;53.198;19.646;2024-03-23T11:03:45;98773.13;;;9.45;78.36
70338;BME280;57757;53.198;19.646;2024-03-23T11:06:36;98768.53;;;9.47;78.32
70338;BME280;57757;53.198;19.646;2024-03-23T11:09:10;98770.39;;;9.44;78.19
70338;BME280;57757;53.198;19.646;2024-03-23T11:11:51;98770.64;;;9.34;77.77
70338;BME280;57757;53.198;19.646;2024-03-23T11:14:22;98774.52;;;9.24;77.72
70338;BME280;57757;53.198;19.646;2024-03-23T11:17:08;98773.30;;;9.11;77.66
70338;BME280;57757;53.198;19.646;2024-03-23T11:19:37;98767.99;;;9.00;77.72
70338;BME280;57757;53.198;19.646;2024-03-23T11:22:05;98754.71;;;8.95;77.90
70338;BME280;57757;53.198;19.646;2024-03-23T11:24:32;98748.90;;;8.92;77.97
70338;BME280;57757;53.198;19.646;2024-03-23T11:27:00;98746.43;;;8.89;77.98
70338;BME280;57757;53.198;19.646;2024-03-23T11:29:31;98747.23;;;8.86;78.13
70338;BME280;57757;53.198;19.646;2024-03-23T11:31:58;98739.20;;;8.88;78.06
70338;BME280;57757;53.198;19.646;2024-03-23T11:34:26;98727.16;;;8.95;78.35
70338;BME280;57757;53.198;19.646;2024-03-23T11:37:04;98722.74;;;9.05;78.63
70338;BME280;57757;53.198;19.646;2024-03-23T11:39:32;98724.40;;;9.19;78.71
70338;BME280;57757;53.198;19.646;2024-03-23T11:41:59;98714.13;;;9.29;78.54
70338;BME280;57757;53.198;19.646;2024-03-23T11:44:26;98713.47;;;9.32;78.37
70338;BME280;57757;53.198;19.646;2024-03-23T11:47:07;98709.79;;;9.33;78.30
70338;BME280;57757;53.198;19.646;2024-03-23T11:49:34;98707.11;;;9.30;78.07
70338;BME280;57757;53.198;19.646;2024-03-23T11:52:07;98711.23;;;9.24;77.86
70338;BME280;57757;53.198;19.646;2024-03-23T11:54:35;98718.30;;;9.16;77.81
70338;BME280;57757;53.198;19.646;2024-03-23T11:57:04;98726.19;;;9.09;77.83
70338;BME280;57757;53.198;19.646;2024-03-23T11:59:39;98729.01;;;9.04;77.84
70338;BME280;57757;53.198;19.646;2024-03-23T12:02:11;98726.86;;;9.01;77.84
70338;BME280;57757;53.198;19.646;2024-03-23T12:04:41;98721.61;;;8.98;77.78
70338;BME280;57757;53.198;19.646;2024-03-23T12:07:19;98713.55;;;8.96;77.78
70338;BME280;57757;53.198;19.646;2024-03-23T12:10:03;98702.30;;;8.96;77.94
70338;BME280;57757;53.198;19.646;2024-03-23T12:12:31;98692.30;;;8.98;77.98
70338;BME280;57757;53.198;19.646;2024-03-23T12:15:05;98682.00;;;9.00;78.04
70338;BME280;57757;53.198;19.646;2024-03-23T12:17:34;98668.98;;;9.05;78.22
70338;BME280;57757;53.198;19.646;2024-03-23T12:20:02;98657.42;;;9.12;78.29
70338;BME280;57757;53.198;19.646;2024-03-23T12:22:30;98643.08;;;9.23;78.45
70338;BME280;57757;53.198;19.646;2024-03-23T12:24:57;98630.22;;;9.35;78.60
70338;BME280;57757;53.198;19.646;2024-03-23T12:27:25;98621.90;;;9.47;78.44
70338;BME280;57757;53.198;19.646;2024-03-23T12:29:52;98618.11;;;9.58;78.38
70338;BME280;57757;53.198;19.646;2024-03-23T12:32:19;98614.48;;;9.66;78.27
70338;BME280;57757;53.198;19.646;2024-03-23T12:34:47;98617.65;;;9.65;78.01
70338;BME280;57757;53.198;19.646;2024-03-23T12:37:14;98615.37;;;9.61;78.07
70338;BME280;57757;53.198;19.646;2024-03-23T12:39:47;98612.82;;;9.60;78.02
70338;BME280;57757;53.198;19.646;2024-03-23T12:42:14;98609.61;;;9.62;78.07
70338;BME280;57757;53.198;19.646;2024-03-23T12:44:42;98607.73;;;9.62;77.86
70338;BME280;57757;53.198;19.646;2024-03-23T12:47:09;98598.14;;;9.62;77.90
70338;BME280;57757;53.198;19.646;2024-03-23T12:49:38;98592.34;;;9.64;77.96
70338;BME280;57757;53.198;19.646;2024-03-23T12:52:05;98585.83;;;9.66;77.91
70338;BME280;57757;53.198;19.646;2024-03-23T12:54:34;98572.83;;;9.70;77.99
70338;BME280;57757;53.198;19.646;2024-03-23T12:57:02;98571.06;;;9.70;77.75
70338;BME280;57757;53.198;19.646;2024-03-23T12:59:29;98570.63;;;9.68;77.67
70338;BME280;57757;53.198;19.646;2024-03-23T13:01:57;98573.15;;;9.63;77.71
70338;BME280;57757;53.198;19.646;2024-03-23T13:04:24;98563.53;;;9.56;77.68
70338;BME280;57757;53.198;19.646;2024-03-23T13:06:51;98557.62;;;9.49;77.50
70338;BME280;57757;53.198;19.646;2024-03-23T13:09:19;98559.20;;;9.41;77.37
70338;BME280;57757;53.198;19.646;2024-03-23T13:11:46;98560.55;;;9.30;77.32
70338;BME280;57757;53.198;19.646;2024-03-23T13:14:13;98557.00;;;9.20;77.35
70338;BME280;57757;53.198;19.646;2024-03-23T13:16:45;98544.35;;;9.11;77.41
70338;BME280;57757;53.198;19.646;2024-03-23T13:19:12;98538.18;;;9.06;77.43
70338;BME280;57757;53.198;19.646;2024-03-23T13:21:39;98537.35;;;9.01;77.41
70338;BME280;57757;53.198;19.646;2024-03-23T13:24:07;98542.70;;;8.98;77.49
70338;BME280;57757;53.198;19.646;2024-03-23T13:26:34;98539.27;;;8.93;77.52
70338;BME280;57757;53.198;19.646;2024-03-23T13:29:01;98531.95;;;8.90;77.34
70338;BME280;57757;53.198;19.646;2024-03-23T13:31:28;98515.27;;;8.87;77.34
70338;BME280;57757;53.198;19.646;2024-03-23T13:33:55;98509.48;;;8.85;77.40
70338;BME280;57757;53.198;19.646;2024-03-23T13:36:23;98508.20;;;8.82;77.63
70338;BME280;57757;53.198;19.646;2024-03-23T13:38:51;98501.48;;;8.81;77.62
70338;BME280;57757;53.198;19.646;2024-03-23T13:41:18;98495.33;;;8.83;77.62
70338;BME280;57757;53.198;19.646;2024-03-23T13:43:45;98496.79;;;8.85;77.87
70338;BME280;57757;53.198;19.646;2024-03-23T13:46:12;98490.98;;;8.88;77.89
70338;BME280;57757;53.198;19.646;2024-03-23T13:48:40;98495.33;;;8.87;77.84
70338;BME280;57757;53.198;19.646;2024-03-23T13:51:09;98510.96;;;8.86;77.81
70338;BME280;57757;53.198;19.646;2024-03-23T13:53:38;98518.91;;;8.83;77.76
70338;BME280;57757;53.198;19.646;2024-03-23T13:56:05;98518.04;;;8.79;77.60
70338;BME280;57757;53.198;19.646;2024-03-23T13:58:33;98505.41;;;8.75;77.56
70338;BME280;57757;53.198;19.646;2024-03-23T14:01:00;98499.60;;;8.73;77.57
70338;BME280;57757;53.198;19.646;2024-03-23T14:03:27;98492.41;;;8.70;77.49
70338;BME280;57757;53.198;19.646;2024-03-23T14:05:59;98483.84;;;8.68;77.65
70338;BME280;57757;53.198;19.646;2024-03-23T14:08:30;98471.81;;;8.66;77.63